createdAt,value
2022-09-05T00:00:14.552Z,73.83
2022-09-05T00:03:02.646Z,73.71
2022-09-05T00:05:48.400Z,74.35
2022-09-05T00:08:51.540Z,74.25
2022-09-05T00:11:41.393Z,74.74
2022-09-05T00:14:53.733Z,74.35
2022-09-05T00:19:50.336Z,74.54
2022-09-05T00:24:22.454Z,73.96
2022-09-05T00:24:34.150Z,74.08
2022-09-05T00:27:10.438Z,74.11
2022-09-05T00:31:05.557Z,74.58
2022-09-05T00:32:49.041Z,74.53
2022-09-05T00:35:26.009Z,74.63
2022-09-05T00:37:53.994Z,74.91
2022-09-05T00:40:32.764Z,74.66
2022-09-05T00:43:05.187Z,74.77
2022-09-05T00:45:39.721Z,74.27
2022-09-05T00:48:06.418Z,74.47
2022-09-05T00:51:14.205Z,74.36
2022-09-05T00:53:55.200Z,74.32
2022-09-05T00:56:30.819Z,74.48
2022-09-05T00:59:10.798Z,74.57
2022-09-05T01:01:47.964Z,74.27
2022-09-05T01:04:36.765Z,73.98
2022-09-05T01:07:09.408Z,74.14
2022-09-05T01:09:45.021Z,73.78
2022-09-05T01:12:52.665Z,73.70
2022-09-05T01:15:32.981Z,74.90
2022-09-05T01:18:25.422Z,75.45
2022-09-05T01:20:54.810Z,76.99
2022-09-05T01:23:43.262Z,77.17
2022-09-05T01:26:23.942Z,77.65
2022-09-05T01:29:17.872Z,78.26
2022-09-05T01:32:00.069Z,78.78
2022-09-05T01:34:34.616Z,79.17
2022-09-05T01:37:29.657Z,79.60
2022-09-05T01:40:16.446Z,80.55
2022-09-05T01:43:17.082Z,81.22
2022-09-05T01:45:59.301Z,81.28
2022-09-05T01:48:35.756Z,82.20
2022-09-05T01:51:31.735Z,82.22
2022-09-05T01:54:29.980Z,82.82
2022-09-05T01:57:02.479Z,82.62
2022-09-05T01:59:45.960Z,83.15
2022-09-05T02:02:26.724Z,83.60
2022-09-05T02:05:02.561Z,83.69
2022-09-05T02:08:06.911Z,84.02
2022-09-05T02:11:02.210Z,84.10
2022-09-05T02:13:34.530Z,84.61
2022-09-05T02:16:26.377Z,84.53
2022-09-05T02:19:04.320Z,85.30
2022-09-05T02:21:40.690Z,85.26
2022-09-05T02:24:31.352Z,84.94
2022-09-05T02:27:40.215Z,85.30
2022-09-05T02:30:13.085Z,85.11
2022-09-05T02:32:44.500Z,84.98
2022-09-05T02:35:13.746Z,85.03
2022-09-05T02:42:04.590Z,84.85
2022-09-05T02:45:07.357Z,84.29
2022-09-05T02:45:14.816Z,84.46
2022-09-05T02:47:28.008Z,84.70
2022-09-05T02:51:53.606Z,84.87
2022-09-05T02:57:24.898Z,85.06
2022-09-05T02:57:32.960Z,84.95
2022-09-05T02:59:36.111Z,84.54
2022-09-05T03:02:37.740Z,84.63
2022-09-05T03:05:29.793Z,84.74
2022-09-05T03:08:20.952Z,84.81
2022-09-05T03:11:08.540Z,84.95
2022-09-05T03:13:57.934Z,85.19
2022-09-05T03:16:47.332Z,85.22
2022-09-05T03:19:46.286Z,85.41
2022-09-05T03:22:55.951Z,85.02
2022-09-05T03:25:48.735Z,85.62
2022-09-05T03:28:39.447Z,85.58
2022-09-05T03:31:41.625Z,85.73
2022-09-05T03:34:31.467Z,85.92
2022-09-05T03:37:45.932Z,86.32
2022-09-05T03:41:03.499Z,86.78
2022-09-05T03:43:54.929Z,86.61
2022-09-05T03:46:21.418Z,86.58
2022-09-05T03:50:05.866Z,86.95
2022-09-05T03:57:12.086Z,86.83
2022-09-05T03:57:13.715Z,86.33
2022-09-05T03:58:57.346Z,86.76
2022-09-05T04:05:46.930Z,87.10
2022-09-05T04:08:16.625Z,87.18
2022-09-05T04:08:27.566Z,88.03
2022-09-05T04:10:56.633Z,87.80
2022-09-05T04:13:25.909Z,88.02
2022-09-05T04:16:46.274Z,87.35
2022-09-05T04:19:25.346Z,87.62
2022-09-05T04:22:03.084Z,87.60
2022-09-05T04:24:52.268Z,87.94
2022-09-05T04:27:40.677Z,87.94
2022-09-05T04:30:39.527Z,87.87
2022-09-05T04:33:45.850Z,88.38
2022-09-05T04:36:28.150Z,88.24
2022-09-05T04:39:27.637Z,88.25
2022-09-05T04:42:22.492Z,88.06
2022-09-05T04:45:00.357Z,88.24
2022-09-05T04:47:37.999Z,88.38
2022-09-05T04:50:10.805Z,88.20
2022-09-05T04:52:53.505Z,88.08
2022-09-05T04:55:52.125Z,87.72
2022-09-05T04:59:36.276Z,87.68
2022-09-05T05:06:01.810Z,87.62
2022-09-05T05:06:18.351Z,87.61
2022-09-05T05:07:52.407Z,87.53
2022-09-05T05:14:23.287Z,87.83
2022-09-05T05:17:56.337Z,87.90
2022-09-05T05:18:09.411Z,88.00
2022-09-05T05:19:33.708Z,88.03
2022-09-05T05:22:04.758Z,88.36
2022-09-05T05:24:35.331Z,87.84
2022-09-05T05:27:17.055Z,88.34
2022-09-05T05:29:52.411Z,88.23
2022-09-05T05:32:44.825Z,88.03
2022-09-05T05:35:21.578Z,88.34
2022-09-05T05:37:51.279Z,88.50
2022-09-05T05:40:26.394Z,88.41
2022-09-05T05:43:14.622Z,88.54
2022-09-05T05:45:41.863Z,88.05
2022-09-05T05:48:29.977Z,88.34
2022-09-05T05:51:06.420Z,88.37
2022-09-05T05:53:58.854Z,88.16
2022-09-05T05:56:48.511Z,88.57
2022-09-05T05:59:56.568Z,88.10
2022-09-05T06:03:25.475Z,88.05
2022-09-05T06:06:31.718Z,87.74
2022-09-05T06:14:51.207Z,88.09
2022-09-05T06:15:05.802Z,88.07
2022-09-05T06:15:57.756Z,87.45
2022-09-05T06:19:08.182Z,87.33
2022-09-05T06:22:15.831Z,87.05
2022-09-05T06:25:17.288Z,87.21
2022-09-05T06:28:19.214Z,87.14
2022-09-05T06:31:30.673Z,87.20
2022-09-05T06:33:57.575Z,86.73
2022-09-05T06:36:39.732Z,86.56
2022-09-05T06:39:18.408Z,86.53
2022-09-05T06:41:57.246Z,85.89
2022-09-05T06:44:38.348Z,85.72
2022-09-05T06:47:23.820Z,84.76
2022-09-05T06:50:23.847Z,84.83
2022-09-05T06:53:09.555Z,85.19
2022-09-05T06:56:28.759Z,85.14
2022-09-05T06:59:38.747Z,84.05
2022-09-05T07:02:58.822Z,83.51
2022-09-05T07:05:37.878Z,83.71
2022-09-05T07:08:54.077Z,83.95
2022-09-05T07:11:32.798Z,84.10
2022-09-05T07:14:11.162Z,84.47
2022-09-05T07:16:56.732Z,84.56
2022-09-05T07:19:25.870Z,83.95
2022-09-05T07:22:18.500Z,82.41
2022-09-05T07:24:56.138Z,81.85
2022-09-05T07:27:31.042Z,80.85
2022-09-05T07:30:00.869Z,80.21
2022-09-05T07:32:31.358Z,79.66
2022-09-05T07:35:01.334Z,79.26
2022-09-05T07:37:38.604Z,78.10
2022-09-05T07:40:25.451Z,77.66
2022-09-05T07:43:10.670Z,76.78
2022-09-05T07:46:11.695Z,75.90
2022-09-05T07:48:48.867Z,75.15
2022-09-05T07:56:47.608Z,74.12
2022-09-05T07:57:09.948Z,74.26
2022-09-05T08:00:03.893Z,74.72
2022-09-05T08:02:31.174Z,74.83
2022-09-05T08:05:04.353Z,75.36
2022-09-05T08:07:48.949Z,75.76
2022-09-05T08:10:31.170Z,76.40
2022-09-05T08:13:34.265Z,76.81
2022-09-05T08:16:13.033Z,75.60
2022-09-05T08:18:45.777Z,76.53
2022-09-05T08:21:27.388Z,77.38
2022-09-05T08:24:17.495Z,78.72
2022-09-05T08:27:05.066Z,80.01
2022-09-05T08:29:43.826Z,80.99
2022-09-05T08:32:19.823Z,82.33
2022-09-05T08:35:05.851Z,81.03
2022-09-05T08:37:33.407Z,80.85
2022-09-05T08:40:13.720Z,81.12
2022-09-05T08:42:40.209Z,81.76
2022-09-05T08:46:47.656Z,82.42
2022-09-05T08:48:38.999Z,82.07
2022-09-05T08:51:17.642Z,81.95
2022-09-05T08:54:06.278Z,82.16
2022-09-05T08:56:48.091Z,81.55
2022-09-05T09:00:19.520Z,80.47
2022-09-05T09:02:48.880Z,78.33
2022-09-05T09:05:15.644Z,77.87
2022-09-05T09:08:04.678Z,75.78
2022-09-05T09:10:47.461Z,76.82
2022-09-05T09:13:52.327Z,76.74
2022-09-05T09:16:38.474Z,77.63
2022-09-05T09:19:51.602Z,78.85
2022-09-05T09:22:38.707Z,78.07
2022-09-05T09:25:18.416Z,76.91
2022-09-05T09:28:49.621Z,76.76
2022-09-05T09:31:13.400Z,76.64
2022-09-05T09:33:55.177Z,76.60
2022-09-05T09:36:49.982Z,74.62
2022-09-05T09:39:44.354Z,72.29
2022-09-05T09:42:33.496Z,72.11
2022-09-05T09:45:22.594Z,73.02
2022-09-05T09:48:24.598Z,73.66
2022-09-05T09:51:27.889Z,72.38
2022-09-05T09:54:28.751Z,72.49
2022-09-05T09:57:20.986Z,71.17
2022-09-05T10:00:11.618Z,68.79
2022-09-05T10:06:06.622Z,68.42
2022-09-05T10:10:46.909Z,69.35
2022-09-05T10:11:22.685Z,66.00
2022-09-05T10:12:14.464Z,65.66
2022-09-05T10:15:31.088Z,64.72
2022-09-05T10:18:13.930Z,64.59
2022-09-05T10:21:16.780Z,64.45
2022-09-05T10:24:28.979Z,63.29
2022-09-05T10:27:19.921Z,61.66
2022-09-05T10:30:07.795Z,61.01
2022-09-05T10:35:15.178Z,60.34
2022-09-05T10:35:44.402Z,61.50
2022-09-05T10:38:26.329Z,59.42
2022-09-05T10:41:21.257Z,59.11
2022-09-05T10:44:04.578Z,60.72
2022-09-05T10:47:04.625Z,59.80
2022-09-05T10:49:35.910Z,58.57
2022-09-05T10:52:19.086Z,57.04
2022-09-05T10:55:15.185Z,58.30
2022-09-05T10:57:54.392Z,56.12
2022-09-05T11:02:27.828Z,56.48
2022-09-05T11:03:44.681Z,53.88
2022-09-05T11:06:20.893Z,57.30
2022-09-05T11:08:58.664Z,54.56
2022-09-05T11:11:34.136Z,53.43
2022-09-05T11:14:26.737Z,53.45
2022-09-05T11:17:01.000Z,53.38
2022-09-05T11:19:44.566Z,52.77
2022-09-05T11:22:24.047Z,52.95
2022-09-05T11:25:02.512Z,52.89
2022-09-05T11:27:34.279Z,51.25
2022-09-05T11:30:10.334Z,49.64
2022-09-05T11:36:18.875Z,48.80
2022-09-05T11:40:08.723Z,46.53
2022-09-05T11:40:10.063Z,46.76
2022-09-05T11:42:11.107Z,45.53
2022-09-05T11:44:49.568Z,44.65
2022-09-05T11:48:00.946Z,43.82
2022-09-05T11:50:57.230Z,41.92
2022-09-05T11:53:35.689Z,42.45
2022-09-05T11:56:20.727Z,41.79
2022-09-05T11:59:06.727Z,42.23
2022-09-05T12:01:48.007Z,42.36
2022-09-05T12:04:17.617Z,42.13
2022-09-05T12:07:16.027Z,42.31
2022-09-05T12:10:03.227Z,41.85
2022-09-05T12:12:46.754Z,40.33
2022-09-05T12:15:34.336Z,39.67
2022-09-05T12:18:04.118Z,39.36
2022-09-05T12:21:00.314Z,39.31
2022-09-05T12:23:53.856Z,38.43
2022-09-05T12:27:41.467Z,37.90
2022-09-05T12:29:59.501Z,36.42
2022-09-05T12:32:50.347Z,35.47
2022-09-05T12:36:07.913Z,35.28
2022-09-05T12:40:45.100Z,35.38
2022-09-05T12:41:44.425Z,35.27
2022-09-05T12:44:41.944Z,35.48
2022-09-05T12:47:19.371Z,36.43
2022-09-05T12:50:03.526Z,36.41
2022-09-05T12:52:49.408Z,35.42
2022-09-05T12:55:36.448Z,35.60
2022-09-05T13:02:59.166Z,36.49
2022-09-05T13:03:01.184Z,35.32
2022-09-05T13:04:23.766Z,36.78
2022-09-05T13:07:07.408Z,33.61
2022-09-05T13:11:48.494Z,32.56
2022-09-05T13:14:54.434Z,30.22
2022-09-05T13:15:36.177Z,30.68
2022-09-05T13:18:10.646Z,33.21
2022-09-05T13:20:51.728Z,33.24
2022-09-05T13:23:24.499Z,35.99
2022-09-05T13:26:40.344Z,33.05
2022-09-05T13:29:18.995Z,32.41
2022-09-05T13:38:01.205Z,38.05
2022-09-05T13:38:05.804Z,34.79
2022-09-05T13:38:20.680Z,35.86
2022-09-05T13:40:31.978Z,30.25
2022-09-05T13:42:58.555Z,30.52
2022-09-05T13:45:27.042Z,29.69
2022-09-05T13:47:56.557Z,32.99
2022-09-05T13:50:43.783Z,30.19
2022-09-05T13:53:21.186Z,32.29
2022-09-05T13:56:03.265Z,35.26
2022-09-05T13:58:56.418Z,34.66
2022-09-05T14:02:02.984Z,34.81
2022-09-05T14:05:05.831Z,31.16
2022-09-05T14:07:46.318Z,27.57
2022-09-05T14:10:43.168Z,31.76
2022-09-05T14:13:24.277Z,34.41
2022-09-05T14:15:56.295Z,34.79
2022-09-05T14:18:34.170Z,34.32
2022-09-05T14:21:16.172Z,34.60
2022-09-05T14:23:45.479Z,35.51
2022-09-05T14:26:21.638Z,35.33
2022-09-05T14:29:20.179Z,33.43
2022-09-05T14:37:40.033Z,34.33
2022-09-05T14:37:46.009Z,34.39
2022-09-05T14:38:19.640Z,35.25
2022-09-05T14:41:05.027Z,37.10
2022-09-05T14:43:57.112Z,37.13
2022-09-05T14:47:02.998Z,36.36
2022-09-05T14:49:44.653Z,34.39
2022-09-05T14:52:25.490Z,35.83
2022-09-05T15:02:41.282Z,36.36
2022-09-05T15:03:01.006Z,36.70
2022-09-05T15:06:33.341Z,38.30
2022-09-05T15:12:17.889Z,39.37
2022-09-05T15:12:23.597Z,38.72
2022-09-05T15:14:36.830Z,38.90
2022-09-05T15:17:05.825Z,39.50
2022-09-05T15:20:05.131Z,39.44
2022-09-05T15:22:37.877Z,40.65
2022-09-05T15:25:16.728Z,40.90
2022-09-05T15:27:45.207Z,41.41
2022-09-05T15:30:35.545Z,41.20
2022-09-05T15:33:17.533Z,41.61
2022-09-05T15:35:45.086Z,40.49
2022-09-05T15:38:55.055Z,39.74
2022-09-05T15:41:27.793Z,38.64
2022-09-05T15:44:11.913Z,38.87
2022-09-05T15:46:57.182Z,40.08
2022-09-05T15:49:31.402Z,39.49
2022-09-05T15:52:02.812Z,39.85
2022-09-05T15:54:39.233Z,40.82
2022-09-05T15:57:17.639Z,41.70
2022-09-05T15:59:49.477Z,42.42
2022-09-05T16:02:20.970Z,43.29
2022-09-05T16:10:28.351Z,43.83
2022-09-05T16:10:43.468Z,44.46
2022-09-05T16:14:24.766Z,45.48
2022-09-05T16:23:13.887Z,46.28
2022-09-05T16:23:24.444Z,46.94
2022-09-05T16:23:33.599Z,47.92
2022-09-05T16:26:01.812Z,47.68
2022-09-05T16:28:55.637Z,48.57
2022-09-05T16:31:34.306Z,48.74
2022-09-05T16:34:10.360Z,49.18
2022-09-05T16:37:08.911Z,49.46
2022-09-05T16:39:41.228Z,49.79
2022-09-05T16:42:16.687Z,50.84
2022-09-05T16:44:43.455Z,51.34
2022-09-05T16:47:24.543Z,51.62
2022-09-05T16:50:16.471Z,52.54
2022-09-05T16:52:53.611Z,52.74
2022-09-05T16:55:27.127Z,53.57
2022-09-05T16:58:14.259Z,52.98
2022-09-05T17:01:13.657Z,53.15
2022-09-05T17:04:10.333Z,52.47
2022-09-05T17:06:48.908Z,52.97
2022-09-05T17:09:40.710Z,52.46
2022-09-05T17:12:12.740Z,52.01
2022-09-05T17:14:46.450Z,51.75
2022-09-05T17:18:20.826Z,52.10
2022-09-05T17:20:14.497Z,52.33
2022-09-05T17:26:29.211Z,52.23
2022-09-05T17:29:26.024Z,52.66
2022-09-05T17:29:26.614Z,52.36
2022-09-05T17:31:57.721Z,52.89
2022-09-05T17:34:44.708Z,53.00
2022-09-05T17:37:39.999Z,53.03
2022-09-05T17:40:38.990Z,53.26
2022-09-05T17:43:33.721Z,52.88
2022-09-05T17:46:23.781Z,53.33
2022-09-05T17:49:17.924Z,53.50
2022-09-05T17:51:51.086Z,53.55
2022-09-05T17:54:22.726Z,53.88
2022-09-05T17:56:49.835Z,54.26
2022-09-05T17:59:19.379Z,53.95
2022-09-05T18:02:04.801Z,54.30
2022-09-05T18:04:45.321Z,54.19
2022-09-05T18:07:43.453Z,54.45
2022-09-05T18:10:15.144Z,54.86
2022-09-05T18:15:40.669Z,55.38
2022-09-05T18:19:28.177Z,55.70
2022-09-05T18:21:22.328Z,56.16
2022-09-05T18:24:12.838Z,56.17
2022-09-05T18:26:46.490Z,56.70
2022-09-05T18:29:58.629Z,56.58
2022-09-05T18:32:53.878Z,56.75
2022-09-05T18:35:36.918Z,57.44
2022-09-05T18:38:04.200Z,57.52
2022-09-05T18:40:56.696Z,58.22
2022-09-05T18:43:23.262Z,58.59
2022-09-05T18:45:55.264Z,58.60
2022-09-05T18:48:29.894Z,58.90
2022-09-05T18:51:15.067Z,58.72
2022-09-05T18:53:47.432Z,58.92
2022-09-05T18:56:22.353Z,58.46
2022-09-05T18:59:03.990Z,59.42
2022-09-05T19:01:42.103Z,59.28
2022-09-05T19:04:40.392Z,59.74
2022-09-05T19:07:12.173Z,60.32
2022-09-05T19:09:57.031Z,60.07
2022-09-05T19:12:34.992Z,61.03
2022-09-05T19:15:14.402Z,61.08
2022-09-05T19:17:46.942Z,62.14
2022-09-05T19:20:33.350Z,61.63
2022-09-05T19:23:11.273Z,61.62
2022-09-05T19:25:46.197Z,62.37
2022-09-05T19:35:38.616Z,62.16
2022-09-05T19:37:06.830Z,62.88
2022-09-05T19:37:12.861Z,63.30
2022-09-05T19:37:29.716Z,63.06
2022-09-05T19:44:23.705Z,63.62
2022-09-05T19:47:39.121Z,63.24
2022-09-05T19:47:39.459Z,63.52
2022-09-05T19:48:26.549Z,64.15
2022-09-05T19:51:16.141Z,64.66
2022-09-05T19:54:04.569Z,64.96
2022-09-05T19:56:45.670Z,65.19
2022-09-05T19:59:22.378Z,66.01
2022-09-05T20:01:51.679Z,66.17
2022-09-05T20:04:19.589Z,66.74
2022-09-05T20:06:48.148Z,67.09
2022-09-05T20:09:17.710Z,67.83
2022-09-05T20:11:58.767Z,68.10
2022-09-05T20:14:35.806Z,67.70
2022-09-05T20:17:23.366Z,67.64
2022-09-05T20:20:04.346Z,68.45
2022-09-05T20:22:47.013Z,68.85
2022-09-05T20:25:40.366Z,68.98
2022-09-05T20:28:15.938Z,69.36
2022-09-05T20:30:46.009Z,69.39
2022-09-05T20:33:38.194Z,69.44
2022-09-05T20:43:25.331Z,70.01
2022-09-05T20:43:26.513Z,70.07
2022-09-05T20:43:35.367Z,70.31
2022-09-05T20:45:01.158Z,70.47
2022-09-05T20:54:06.894Z,70.62
2022-09-05T20:54:16.030Z,70.67
2022-09-05T20:54:23.206Z,70.68
2022-09-05T20:56:23.519Z,70.23
2022-09-05T20:58:51.450Z,70.63
2022-09-05T21:01:23.057Z,70.71
2022-09-05T21:03:59.048Z,70.50
2022-09-05T21:06:29.504Z,70.03
2022-09-05T21:09:24.946Z,70.61
2022-09-05T21:11:58.610Z,70.21
2022-09-05T21:14:28.379Z,70.13
2022-09-05T21:17:08.275Z,69.77
2022-09-05T21:19:53.198Z,69.80
2022-09-05T21:22:24.912Z,70.44
2022-09-05T21:25:16.120Z,71.32
2022-09-05T21:27:54.553Z,71.59
2022-09-05T21:30:21.303Z,71.33
2022-09-05T21:32:50.689Z,71.91
2022-09-05T21:35:34.437Z,72.31
2022-09-05T21:38:02.177Z,71.84
2022-09-05T21:40:28.762Z,72.47
2022-09-05T21:47:34.398Z,72.37
2022-09-05T21:47:46.515Z,72.05
2022-09-05T21:48:34.471Z,72.70
2022-09-05T21:51:13.152Z,71.90
2022-09-05T21:55:06.421Z,71.82
2022-09-05T21:59:29.239Z,72.19
2022-09-05T21:59:47.054Z,71.77
2022-09-05T22:02:17.245Z,72.52
2022-09-05T22:04:44.219Z,72.78
2022-09-05T22:07:31.775Z,73.12
2022-09-05T22:10:00.406Z,73.30
2022-09-05T22:12:33.555Z,73.66
2022-09-05T22:15:04.528Z,73.39
2022-09-05T22:17:49.332Z,73.33
2022-09-05T22:20:20.244Z,73.73
2022-09-05T22:22:56.435Z,73.46
2022-09-05T22:25:30.658Z,73.83
2022-09-05T22:28:06.638Z,73.31
2022-09-05T22:30:35.721Z,73.97
2022-09-05T22:33:05.471Z,73.81
2022-09-05T22:35:37.182Z,73.70
2022-09-05T22:38:10.556Z,73.65
2022-09-05T22:40:41.249Z,73.84
2022-09-05T22:43:09.680Z,74.16
2022-09-05T22:45:39.548Z,73.89
2022-09-05T22:48:11.426Z,73.60
2022-09-05T22:50:38.973Z,73.81
2022-09-05T22:53:07.439Z,74.38
2022-09-05T22:55:43.723Z,74.24
2022-09-05T22:58:13.147Z,74.95
2022-09-05T23:00:39.807Z,74.68
2022-09-05T23:03:07.365Z,75.57
2022-09-05T23:05:34.522Z,75.00
2022-09-05T23:08:02.506Z,75.81
2022-09-05T23:10:30.199Z,75.94
2022-09-05T23:12:57.544Z,75.92
2022-09-05T23:15:25.062Z,76.38
2022-09-05T23:17:56.757Z,76.33
2022-09-05T23:20:25.216Z,76.27
2022-09-05T23:22:51.775Z,77.08
2022-09-05T23:25:18.810Z,76.65
2022-09-05T23:27:45.875Z,76.91
2022-09-05T23:30:13.738Z,77.29
2022-09-05T23:32:45.329Z,76.84
2022-09-05T23:35:12.154Z,77.14
2022-09-05T23:37:43.123Z,76.87
2022-09-05T23:40:21.916Z,76.92
2022-09-05T23:43:01.231Z,77.17
2022-09-05T23:45:28.546Z,77.53
2022-09-05T23:47:57.180Z,76.92
2022-09-05T23:50:24.255Z,77.00
2022-09-05T23:52:50.925Z,77.35
2022-09-05T23:55:19.252Z,77.51
2022-09-05T23:57:46.436Z,77.79
